Time;durP1;ratioP1;P1;durP2;ratioP2;P2;SDS_P1;SDS_P2;PMS_P1;PMS_P2;Temp;Humidity;BMP_temperature;BMP_pressure;BME280_temperature;BME280_humidity;BME280_pressure;Samples;Min_cycle;Max_cycle;Signal;HPM_P1;HPM_P2
2021/10/20 00:01:23;;;;;;;6.97;4.05;;;18.70;93.70;;;;;;5023737;28;20037;-71
2021/10/20 00:03:49;;;;;;;6.28;3.53;;;18.70;93.70;;;;;;5021466;28;21771;-71
2021/10/20 00:06:15;;;;;;;11.50;6.40;;;18.70;93.60;;;;;;5033780;28;20116;-71
2021/10/20 00:08:41;;;;;;;14.55;6.30;;;18.70;93.80;;;;;;5033595;28;20038;-71
2021/10/20 00:11:07;;;;;;;6.00;3.50;;;18.70;93.60;;;;;;5029538;28;20025;-71
2021/10/20 00:13:33;;;;;;;9.75;5.30;;;18.70;93.50;;;;;;5025607;28;20140;-71
2021/10/20 00:15:59;;;;;;;11.82;5.68;;;18.70;93.50;;;;;;5027835;28;20052;-71
2021/10/20 00:18:25;;;;;;;12.80;6.45;;;18.70;93.50;;;;;;5021720;28;20477;-71
2021/10/20 00:20:51;;;;;;;9.20;5.10;;;18.70;93.40;;;;;;5020035;28;20133;-71
2021/10/20 00:23:18;;;;;;;10.48;4.13;;;18.70;93.40;;;;;;5029510;28;20025;-71
2021/10/20 00:25:44;;;;;;;9.48;4.63;;;18.70;93.40;;;;;;5026845;28;20366;-71
2021/10/20 00:28:09;;;;;;;10.57;4.80;;;18.60;93.40;;;;;;5032934;28;20440;-71
2021/10/20 00:30:35;;;;;;;7.68;4.32;;;18.60;93.40;;;;;;5032486;28;20026;-71
2021/10/20 00:33:01;;;;;;;8.57;4.95;;;18.60;93.40;;;;;;5018210;28;20175;-71
2021/10/20 00:35:27;;;;;;;5.35;3.13;;;18.60;93.40;;;;;;5033844;28;20053;-71
2021/10/20 00:37:53;;;;;;;7.07;4.53;;;18.60;93.40;;;;;;5031098;28;20064;-71
2021/10/20 00:40:19;;;;;;;11.00;5.18;;;18.60;93.30;;;;;;5031454;28;20409;-71
2021/10/20 00:42:46;;;;;;;2.88;1.88;;;18.60;93.30;;;;;;5033394;28;20422;-71
2021/10/20 00:45:12;;;;;;;5.97;3.30;;;18.60;93.40;;;;;;5030614;28;20043;-71
2021/10/20 00:47:38;;;;;;;9.15;4.22;;;18.60;93.30;;;;;;5023583;28;20084;-72
2021/10/20 00:50:07;;;;;;;7.57;4.18;;;18.50;93.20;;;;;;5029660;28;20036;-71
2021/10/20 00:52:33;;;;;;;8.98;5.55;;;18.50;93.20;;;;;;5033434;28;20037;-71
2021/10/20 00:55:00;;;;;;;8.52;4.30;;;18.50;93.20;;;;;;5020175;28;20512;-71
2021/10/20 00:57:28;;;;;;;3.70;2.45;;;18.50;93.20;;;;;;5031687;28;20025;-71
2021/10/20 00:59:56;;;;;;;11.70;4.32;;;18.50;93.20;;;;;;5032121;28;20068;-71
2021/10/20 01:02:22;;;;;;;10.50;4.82;;;18.50;93.20;;;;;;5019892;28;20039;-71
2021/10/20 01:04:49;;;;;;;7.13;4.35;;;18.50;93.20;;;;;;5029138;28;20572;-72
2021/10/20 01:07:16;;;;;;;6.55;4.03;;;18.50;93.20;;;;;;5027543;28;20029;-71
2021/10/20 01:09:42;;;;;;;7.43;3.88;;;18.50;93.20;;;;;;5030415;28;20017;-71
2021/10/20 01:12:08;;;;;;;6.68;3.28;;;18.50;93.20;;;;;;5028543;28;20080;-71
2021/10/20 01:14:34;;;;;;;9.73;5.47;;;18.40;93.10;;;;;;5027894;28;20140;-72
2021/10/20 01:17:01;;;;;;;6.93;3.53;;;18.40;93.10;;;;;;5013072;28;20125;-71
2021/10/20 01:19:27;;;;;;;12.77;6.47;;;18.40;93.20;;;;;;5013916;28;20050;-71
2021/10/20 01:21:54;;;;;;;12.25;5.55;;;18.40;93.20;;;;;;5025331;28;20045;-71
2021/10/20 01:24:21;;;;;;;11.55;3.25;;;18.40;93.20;;;;;;5027190;28;20473;-71
2021/10/20 01:26:52;;;;;;;10.50;5.63;;;18.40;93.50;;;;;;5031113;28;20037;-71
2021/10/20 01:29:18;;;;;;;7.65;3.53;;;18.40;93.20;;;;;;5031929;28;20067;-72
2021/10/20 01:31:50;;;;;;;12.10;4.80;;;18.40;93.20;;;;;;5019456;28;20444;-71
2021/10/20 01:34:17;;;;;;;13.15;4.20;;;18.40;93.30;;;;;;5026648;28;20033;-71
2021/10/20 01:36:43;;;;;;;10.23;6.05;;;18.30;93.20;;;;;;5021841;28;20026;-72
2021/10/20 01:39:09;;;;;;;11.90;3.65;;;18.30;93.20;;;;;;5030344;28;20041;-72
2021/10/20 01:41:36;;;;;;;9.00;4.90;;;18.30;93.20;;;;;;5027174;28;20041;-72
2021/10/20 01:44:03;;;;;;;4.75;2.25;;;18.30;93.30;;;;;;5013812;28;20088;-71
2021/10/20 01:46:29;;;;;;;10.23;5.38;;;18.30;93.30;;;;;;5025417;28;20399;-71
2021/10/20 01:48:54;;;;;;;11.23;4.10;;;18.20;93.30;;;;;;5019931;28;20041;-71
2021/10/20 01:51:20;;;;;;;6.03;3.63;;;18.20;93.40;;;;;;5030888;28;20029;-72
2021/10/20 01:53:46;;;;;;;6.53;3.80;;;18.20;93.50;;;;;;5020521;28;20033;-71
2021/10/20 01:56:12;;;;;;;7.80;3.63;;;18.20;93.50;;;;;;5016059;28;20030;-72
2021/10/20 01:58:40;;;;;;;8.55;4.50;;;18.20;93.50;;;;;;5015539;28;20066;-72
2021/10/20 02:01:07;;;;;;;5.53;3.78;;;18.10;93.50;;;;;;5018898;28;20405;-72
2021/10/20 02:03:35;;;;;;;8.55;5.05;;;18.20;93.50;;;;;;5016132;28;20397;-71
2021/10/20 02:06:04;;;;;;;8.32;4.68;;;18.10;93.50;;;;;;5019247;28;20120;-71
2021/10/20 02:08:30;;;;;;;5.40;3.45;;;18.10;93.80;;;;;;5030751;28;20025;-72
2021/10/20 02:10:56;;;;;;;8.45;4.55;;;18.10;93.50;;;;;;5018221;28;20040;-72
2021/10/20 02:13:21;;;;;;;7.50;4.22;;;18.10;93.50;;;;;;5029034;28;20025;-72
2021/10/20 02:15:47;;;;;;;18.05;7.07;;;18.10;93.50;;;;;;5030419;28;20025;-71
2021/10/20 02:18:13;;;;;;;8.68;4.85;;;18.10;93.40;;;;;;5016972;28;20098;-72
2021/10/20 02:20:39;;;;;;;6.53;3.63;;;18.10;93.40;;;;;;5013573;28;20108;-72
2021/10/20 02:23:05;;;;;;;9.05;5.25;;;18.10;93.40;;;;;;5026948;28;20034;-72
2021/10/20 02:25:30;;;;;;;8.02;3.47;;;18.10;93.40;;;;;;5025318;28;20026;-71
2021/10/20 02:27:56;;;;;;;8.18;5.00;;;18.10;93.40;;;;;;5025637;28;20362;-71
2021/10/20 02:30:22;;;;;;;12.48;4.25;;;18.10;93.40;;;;;;5027662;28;20509;-71
2021/10/20 02:32:48;;;;;;;9.50;5.30;;;18.10;93.40;;;;;;5017720;28;20112;-71
2021/10/20 02:35:13;;;;;;;7.40;4.13;;;18.10;93.30;;;;;;5019096;28;20032;-72
2021/10/20 02:37:39;;;;;;;8.02;3.75;;;18.00;93.30;;;;;;5028876;28;20458;-71
2021/10/20 02:40:07;;;;;;;11.18;5.07;;;18.00;93.30;;;;;;5029893;28;20037;-71
2021/10/20 02:42:33;;;;;;;11.23;5.43;;;18.10;93.20;;;;;;5030956;28;20041;-71
2021/10/20 02:44:59;;;;;;;7.82;4.97;;;18.10;93.20;;;;;;5017191;28;20034;-71
2021/10/20 02:47:24;;;;;;;6.43;3.50;;;18.10;93.20;;;;;;5017255;28;20392;-71
2021/10/20 02:49:50;;;;;;;9.20;4.13;;;18.00;93.10;;;;;;5026927;28;20030;-71
2021/10/20 02:52:18;;;;;;;6.18;3.35;;;18.00;93.10;;;;;;5032403;28;20049;-72
2021/10/20 02:54:44;;;;;;;7.30;3.90;;;18.10;93.10;;;;;;5018566;28;20021;-72
2021/10/20 02:57:09;;;;;;;7.82;3.60;;;18.10;93.00;;;;;;5019954;28;20033;-72
2021/10/20 02:59:35;;;;;;;9.75;4.63;;;18.10;93.00;;;;;;5022822;28;20034;-71
2021/10/20 03:02:00;;;;;;;12.73;4.78;;;18.00;92.90;;;;;;5023991;28;20112;-71
2021/10/20 03:04:26;;;;;;;14.23;4.10;;;18.00;92.80;;;;;;5023001;28;20085;-72
2021/10/20 03:06:52;;;;;;;6.80;2.80;;;18.10;92.90;;;;;;5026930;28;20026;-71
2021/10/20 03:09:17;;;;;;;10.50;5.95;;;18.00;92.80;;;;;;5021119;28;20473;-72
2021/10/20 03:11:43;;;;;;;7.80;3.17;;;18.00;92.70;;;;;;5023658;28;20079;-71
2021/10/20 03:14:09;;;;;;;12.02;4.43;;;18.00;92.70;;;;;;5023368;28;20053;-71
2021/10/20 03:16:35;;;;;;;7.80;4.93;;;18.00;92.70;;;;;;5028221;28;20033;-71
2021/10/20 03:19:01;;;;;;;7.07;3.63;;;18.00;92.70;;;;;;5026489;28;20029;-71
2021/10/20 03:21:27;;;;;;;8.23;4.55;;;17.90;92.60;;;;;;5031508;28;20044;-71
2021/10/20 03:23:52;;;;;;;8.88;4.07;;;17.90;92.60;;;;;;5023642;28;20029;-72
2021/10/20 03:26:18;;;;;;;15.82;3.72;;;17.90;92.50;;;;;;5026369;28;20484;-71
2021/10/20 03:28:43;;;;;;;4.68;2.70;;;17.90;92.50;;;;;;5032839;28;20021;-71
2021/10/20 03:31:09;;;;;;;7.05;4.05;;;17.90;92.50;;;;;;5033017;28;20026;-71
2021/10/20 03:33:35;;;;;;;9.55;4.75;;;17.90;92.40;;;;;;5031955;28;20040;-71
2021/10/20 03:36:00;;;;;;;14.05;4.35;;;17.90;92.40;;;;;;5033998;28;20909;-71
2021/10/20 03:38:26;;;;;;;8.68;4.00;;;17.90;92.30;;;;;;5030296;28;20485;-72
2021/10/20 03:40:52;;;;;;;6.70;4.15;;;17.90;92.20;;;;;;5034235;28;20096;-72
2021/10/20 03:43:17;;;;;;;5.00;3.10;;;17.90;92.20;;;;;;5023214;28;20413;-72
2021/10/20 03:45:43;;;;;;;8.68;4.95;;;17.90;92.10;;;;;;5029344;28;20030;-71
2021/10/20 03:48:08;;;;;;;10.23;5.53;;;17.90;92.10;;;;;;5018814;28;20038;-71
2021/10/20 03:50:34;;;;;;;5.05;3.20;;;17.90;92.00;;;;;;5028775;28;20091;-71
2021/10/20 03:53:00;;;;;;;6.13;3.25;;;17.90;92.00;;;;;;5024472;28;20076;-72
2021/10/20 03:55:25;;;;;;;4.57;2.83;;;17.90;92.00;;;;;;5031818;28;20424;-72
2021/10/20 03:57:51;;;;;;;11.60;4.70;;;17.80;91.90;;;;;;5017384;28;20062;-71
2021/10/20 04:00:18;;;;;;;9.32;4.38;;;17.90;91.90;;;;;;5018386;28;20092;-72
2021/10/20 04:02:47;;;;;;;6.65;3.72;;;17.80;91.80;;;;;;5022928;28;20057;-71
2021/10/20 04:05:18;;;;;;;5.28;3.33;;;17.80;91.80;;;;;;5022694;28;20046;-72
2021/10/20 04:07:46;;;;;;;6.00;3.35;;;17.80;91.80;;;;;;5028321;28;20022;-71
2021/10/20 04:10:17;;;;;;;6.72;4.03;;;17.80;91.80;;;;;;5028028;28;20034;-72
2021/10/20 04:12:44;;;;;;;7.25;4.18;;;17.70;91.70;;;;;;5020125;28;20049;-72
2021/10/20 04:15:13;;;;;;;10.93;4.07;;;17.70;91.70;;;;;;5023177;28;20044;-71
2021/10/20 04:17:39;;;;;;;10.20;4.80;;;17.80;91.70;;;;;;5032605;28;20396;-72
2021/10/20 04:20:10;;;;;;;9.48;4.82;;;17.70;91.70;;;;;;5015971;28;20145;-71
2021/10/20 04:22:36;;;;;;;5.45;2.53;;;17.70;91.70;;;;;;5016873;28;20068;-72
2021/10/20 04:25:03;;;;;;;8.40;4.82;;;17.60;91.70;;;;;;5020223;28;20053;-72
2021/10/20 04:27:29;;;;;;;10.25;4.80;;;17.60;91.70;;;;;;5024062;28;20029;-71
2021/10/20 04:29:57;;;;;;;8.02;4.63;;;17.70;91.70;;;;;;5024633;28;20437;-71
2021/10/20 04:32:23;;;;;;;6.28;3.90;;;17.60;91.70;;;;;;5031847;28;20034;-71
2021/10/20 04:34:49;;;;;;;7.55;4.30;;;17.60;91.70;;;;;;5020975;28;20049;-71
2021/10/20 04:37:15;;;;;;;6.72;3.08;;;17.60;91.70;;;;;;5026716;28;20058;-71
2021/10/20 04:39:47;;;;;;;9.75;3.25;;;17.60;91.70;;;;;;5026157;28;20080;-71
2021/10/20 04:42:12;;;;;;;9.70;5.05;;;17.60;91.70;;;;;;5023351;28;20041;-71
2021/10/20 04:44:38;;;;;;;9.45;5.07;;;17.50;91.60;;;;;;5029823;28;20030;-71
2021/10/20 04:47:03;;;;;;;11.10;4.45;;;17.60;91.70;;;;;;5028744;28;20057;-72
2021/10/20 04:49:29;;;;;;;10.90;6.00;;;17.50;91.60;;;;;;5031997;28;20022;-72
2021/10/20 04:51:54;;;;;;;6.57;4.18;;;17.50;91.60;;;;;;5029322;28;20029;-71
2021/10/20 04:54:20;;;;;;;12.82;5.20;;;17.50;91.60;;;;;;5028734;28;20037;-71
2021/10/20 04:56:46;;;;;;;10.43;5.05;;;17.50;91.70;;;;;;5027146;28;20057;-71
2021/10/20 04:59:11;;;;;;;11.70;5.65;;;17.50;91.70;;;;;;5022261;28;20075;-71
2021/10/20 05:01:37;;;;;;;9.13;5.03;;;17.50;91.60;;;;;;5028075;28;20037;-72
2021/10/20 05:04:03;;;;;;;7.85;4.57;;;17.50;91.60;;;;;;5032129;28;20029;-71
2021/10/20 05:06:28;;;;;;;7.95;4.15;;;17.50;91.60;;;;;;5031680;28;20442;-71
2021/10/20 05:08:54;;;;;;;5.22;3.05;;;17.50;91.60;;;;;;5020076;28;20033;-71
2021/10/20 05:11:19;;;;;;;12.82;5.75;;;17.50;91.60;;;;;;5031889;28;20014;-71
2021/10/20 05:13:45;;;;;;;10.80;5.95;;;17.50;91.50;;;;;;5031644;28;20049;-71
2021/10/20 05:16:11;;;;;;;7.72;3.55;;;17.50;91.50;;;;;;5029617;28;20037;-71
2021/10/20 05:18:36;;;;;;;11.68;4.75;;;17.40;91.50;;;;;;5015599;28;20124;-71
2021/10/20 05:21:02;;;;;;;9.88;4.90;;;17.40;91.50;;;;;;5026786;28;20620;-71
2021/10/20 05:23:27;;;;;;;9.38;4.22;;;17.40;91.50;;;;;;5019873;28;20028;-71
2021/10/20 05:25:53;;;;;;;8.32;4.72;;;17.40;91.50;;;;;;5019254;28;20038;-71
2021/10/20 05:28:19;;;;;;;14.80;5.65;;;17.40;91.50;;;;;;5017114;28;20080;-71
2021/10/20 05:30:44;;;;;;;8.20;4.88;;;17.40;91.40;;;;;;5020386;28;20116;-71
2021/10/20 05:33:10;;;;;;;12.10;7.00;;;17.40;91.40;;;;;;5024690;28;20067;-71
2021/10/20 05:35:35;;;;;;;11.85;6.22;;;17.30;91.40;;;;;;5025365;28;20022;-71
2021/10/20 05:38:01;;;;;;;17.52;8.02;;;17.30;91.40;;;;;;5020607;28;20451;-72
2021/10/20 05:40:27;;;;;;;12.55;6.43;;;17.30;91.40;;;;;;5016459;28;20124;-71
2021/10/20 05:42:54;;;;;;;10.85;5.38;;;17.30;91.40;;;;;;5019269;28;20506;-72
2021/10/20 05:45:20;;;;;;;18.42;7.45;;;17.30;91.40;;;;;;5016876;28;20120;-72
2021/10/20 05:47:46;;;;;;;10.43;5.85;;;17.30;91.40;;;;;;5024803;28;20043;-71
2021/10/20 05:50:12;;;;;;;14.25;7.00;;;17.30;91.40;;;;;;5018632;28;20022;-71
2021/10/20 05:52:38;;;;;;;10.10;5.75;;;17.30;91.40;;;;;;5018302;28;20493;-71
2021/10/20 05:55:04;;;;;;;15.68;8.15;;;17.20;91.40;;;;;;5023073;28;20053;-71
2021/10/20 05:57:30;;;;;;;11.45;6.82;;;17.20;91.30;;;;;;5016589;28;20080;-71
2021/10/20 05:59:56;;;;;;;15.13;8.85;;;17.20;91.40;;;;;;5023386;28;20030;-71
2021/10/20 06:02:22;;;;;;;13.02;7.25;;;17.20;91.40;;;;;;5022284;28;20048;-71
2021/10/20 06:04:47;;;;;;;18.98;8.65;;;17.20;91.40;;;;;;5021079;28;20458;-71
2021/10/20 06:07:13;;;;;;;19.73;7.63;;;17.10;91.30;;;;;;5020735;28;20038;-72
2021/10/20 06:09:39;;;;;;;14.30;6.78;;;17.10;91.30;;;;;;5020026;28;20048;-71
2021/10/20 06:12:05;;;;;;;17.52;8.23;;;17.10;91.30;;;;;;5021771;28;20033;-71
2021/10/20 06:14:31;;;;;;;13.88;6.97;;;17.10;91.30;;;;;;5018580;28;20038;-71
2021/10/20 06:16:59;;;;;;;12.23;5.90;;;17.10;91.30;;;;;;5019966;28;20026;-71
2021/10/20 06:19:25;;;;;;;14.75;6.72;;;17.10;91.30;;;;;;5019236;28;20022;-71
2021/10/20 06:21:52;;;;;;;16.63;7.90;;;17.10;91.30;;;;;;5014201;28;20072;-71
2021/10/20 06:24:18;;;;;;;16.33;8.35;;;17.10;91.30;;;;;;5015073;28;20033;-71
2021/10/20 06:26:43;;;;;;;13.57;6.60;;;17.10;91.30;;;;;;5014456;28;20030;-71
2021/10/20 06:29:09;;;;;;;12.07;7.75;;;17.20;91.20;;;;;;5017232;28;20124;-72
2021/10/20 06:31:35;;;;;;;11.25;5.63;;;17.20;91.20;;;;;;5023356;28;20029;-71
2021/10/20 06:34:00;;;;;;;14.48;8.70;;;17.20;91.20;;;;;;5022844;28;20107;-71
2021/10/20 06:36:34;;;;;;;9.60;5.40;;;17.20;91.10;;;;;;5024678;28;20417;-71
2021/10/20 06:39:01;;;;;;;13.95;5.97;;;17.20;91.10;;;;;;5023763;28;20065;-71
2021/10/20 06:41:27;;;;;;;18.15;9.13;;;17.30;91.20;;;;;;5025436;28;20041;-74
2021/10/20 06:43:55;;;;;;;6.78;4.10;;;17.30;91.10;;;;;;5030222;28;20087;-77
2021/10/20 06:46:21;;;;;;;15.73;6.88;;;17.20;91.20;;;;;;5030059;28;20393;-77
2021/10/20 06:48:47;;;;;;;14.82;6.57;;;17.30;91.20;;;;;;5028928;28;20021;-77
2021/10/20 06:51:14;;;;;;;12.30;7.68;;;17.20;91.20;;;;;;5027775;28;20038;-76
2021/10/20 06:53:39;;;;;;;12.07;6.53;;;17.20;91.30;;;;;;5020344;28;20423;-76
2021/10/20 06:56:07;;;;;;;19.95;8.93;;;17.30;91.40;;;;;;5022466;28;20111;-77
2021/10/20 06:58:36;;;;;;;20.17;9.80;;;17.20;91.50;;;;;;5024737;28;20022;-77
2021/10/20 07:01:03;;;;;;;7.80;3.72;;;17.20;91.50;;;;;;5025927;28;20041;-76
2021/10/20 07:03:29;;;;;;;10.20;5.32;;;17.20;91.60;;;;;;5021548;28;20475;-78
2021/10/20 07:05:55;;;;;;;15.77;8.52;;;17.20;91.60;;;;;;5017712;28;20037;-78
2021/10/20 07:08:21;;;;;;;12.00;6.28;;;17.20;91.60;;;;;;5020260;28;20018;-77
2021/10/20 07:10:46;;;;;;;18.42;10.50;;;17.30;91.70;;;;;;5026904;28;20061;-79
2021/10/20 07:13:12;;;;;;;13.10;7.57;;;17.20;91.70;;;;;;5031093;28;20473;-79
2021/10/20 07:15:38;;;;;;;12.63;8.43;;;17.20;91.90;;;;;;5027598;28;20036;-78
2021/10/20 07:18:04;;;;;;;17.08;8.75;;;17.20;92.20;;;;;;5031974;28;20992;-78
2021/10/20 07:20:29;;;;;;;11.90;6.25;;;17.20;92.40;;;;;;5025053;28;20068;-79
2021/10/20 07:22:55;;;;;;;14.32;7.95;;;17.20;92.50;;;;;;5026534;28;20080;-83
2021/10/20 07:25:21;;;;;;;10.75;6.43;;;17.20;92.80;;;;;;5020740;28;20046;-78
2021/10/20 07:27:47;;;;;;;17.20;9.73;;;17.20;92.90;;;;;;5028382;28;20033;-77
2021/10/20 07:30:14;;;;;;;12.95;7.63;;;17.20;93.00;;;;;;5026422;28;20025;-77
2021/10/20 07:32:42;;;;;;;16.95;9.45;;;17.20;93.20;;;;;;5030082;28;20025;-77
2021/10/20 07:35:10;;;;;;;13.98;6.32;;;17.20;93.40;;;;;;5025133;28;20026;-77
2021/10/20 07:37:37;;;;;;;11.93;7.13;;;17.20;93.40;;;;;;5026605;28;20500;-77
2021/10/20 07:40:05;;;;;;;19.08;7.68;;;17.20;93.40;;;;;;5021856;28;20030;-77
2021/10/20 07:42:32;;;;;;;10.73;5.88;;;17.20;93.40;;;;;;5020125;28;20029;-76
2021/10/20 07:44:59;;;;;;;13.20;5.32;;;17.20;93.40;;;;;;5020848;28;20042;-76
2021/10/20 07:47:26;;;;;;;13.98;6.82;;;17.30;93.40;;;;;;5024484;28;20038;-77
2021/10/20 07:49:53;;;;;;;13.75;6.93;;;17.40;93.50;;;;;;5019486;28;20030;-78
2021/10/20 07:52:20;;;;;;;12.30;8.38;;;17.30;93.40;;;;;;5023502;28;20025;-76
2021/10/20 07:54:46;;;;;;;14.02;7.97;;;17.40;93.50;;;;;;5020035;28;20123;-78
2021/10/20 07:57:15;;;;;;;16.65;10.27;;;17.30;93.50;;;;;;5019399;28;20053;-77
2021/10/20 07:59:40;;;;;;;14.10;9.45;;;17.40;93.60;;;;;;5018099;28;20026;-78
2021/10/20 08:02:06;;;;;;;15.00;7.20;;;17.30;93.70;;;;;;5023283;28;20483;-77
2021/10/20 08:04:32;;;;;;;14.38;8.65;;;17.30;93.70;;;;;;5020143;28;20022;-77
2021/10/20 08:06:57;;;;;;;13.45;7.05;;;17.40;93.80;;;;;;5021829;28;20432;-77
2021/10/20 08:09:23;;;;;;;18.42;9.32;;;17.40;93.80;;;;;;5024064;28;20049;-77
2021/10/20 08:11:48;;;;;;;13.93;8.50;;;17.40;93.90;;;;;;5018668;28;21707;-78
2021/10/20 08:14:14;;;;;;;16.10;6.90;;;17.40;93.90;;;;;;5025363;28;20037;-77
2021/10/20 08:16:40;;;;;;;10.45;5.20;;;17.40;93.90;;;;;;5024016;28;20025;-77
2021/10/20 08:19:05;;;;;;;9.02;5.22;;;17.40;93.90;;;;;;5021278;28;20022;-77
2021/10/20 08:21:31;;;;;;;9.02;4.28;;;17.50;93.80;;;;;;5021227;28;20477;-77
2021/10/20 08:23:57;;;;;;;13.07;4.47;;;17.50;93.70;;;;;;5027267;28;20022;-77
2021/10/20 08:26:24;;;;;;;12.10;5.65;;;17.60;93.70;;;;;;5030761;28;20045;-77
2021/10/20 08:28:49;;;;;;;14.00;6.05;;;17.70;93.60;;;;;;5015633;28;20026;-77
2021/10/20 08:31:15;;;;;;;15.38;7.35;;;17.60;93.50;;;;;;5024437;28;20798;-76
2021/10/20 08:33:41;;;;;;;8.23;3.67;;;17.70;93.50;;;;;;5025558;28;20109;-77
2021/10/20 08:36:06;;;;;;;7.38;3.75;;;17.70;93.40;;;;;;5026751;28;20126;-76
2021/10/20 08:38:32;;;;;;;6.72;4.22;;;17.70;93.40;;;;;;5023741;28;20046;-76
2021/10/20 08:40:58;;;;;;;5.28;2.97;;;17.70;93.30;;;;;;5026856;28;20041;-76
2021/10/20 08:43:24;;;;;;;10.77;4.90;;;17.80;93.20;;;;;;5027283;28;20026;-76
2021/10/20 08:45:51;;;;;;;7.85;3.33;;;17.80;93.20;;;;;;5024902;28;20034;-77
2021/10/20 08:48:22;;;;;;;7.15;4.70;;;17.80;93.10;;;;;;5024703;28;20068;-77
2021/10/20 08:50:51;;;;;;;9.60;5.10;;;17.80;93.10;;;;;;5025424;28;20021;-76
2021/10/20 08:53:18;;;;;;;8.25;4.38;;;17.80;93.00;;;;;;5022427;28;20029;-76
2021/10/20 08:55:49;;;;;;;4.10;2.50;;;17.80;93.00;;;;;;5019623;28;20033;-74
2021/10/20 08:58:15;;;;;;;10.30;5.00;;;17.90;93.00;;;;;;5032533;28;20491;-81
2021/10/20 09:00:42;;;;;;;7.47;4.35;;;17.90;93.00;;;;;;5021646;28;20136;-75
2021/10/20 09:03:08;;;;;;;8.50;4.80;;;17.90;93.00;;;;;;5028218;28;20125;-76
2021/10/20 09:05:34;;;;;;;6.65;3.22;;;17.90;93.00;;;;;;5019495;28;20171;-77
2021/10/20 09:08:00;;;;;;;5.85;3.03;;;17.90;93.00;;;;;;5017079;28;20030;-77
2021/10/20 09:10:29;;;;;;;7.10;4.03;;;17.90;93.00;;;;;;5014451;28;20047;-77
2021/10/20 09:12:55;;;;;;;11.50;5.25;;;17.90;93.00;;;;;;5015308;28;20065;-77
2021/10/20 09:15:24;;;;;;;8.30;3.45;;;17.90;92.90;;;;;;5020397;28;20037;-76
2021/10/20 09:17:58;;;;;;;5.45;3.20;;;17.90;93.00;;;;;;5015982;28;20164;-76
2021/10/20 09:20:25;;;;;;;;;;;17.90;93.00;;;;;;5023348;28;20354;-78
2021/10/20 09:23:12;;;;;;;10.30;6.35;;;17.90;92.90;;;;;;5016065;28;19915;-83
2021/10/20 09:25:44;;;;;;;9.52;5.25;;;17.90;92.90;;;;;;5021897;28;20034;-79
2021/10/20 09:28:33;;;;;;;2.63;1.98;;;17.90;92.90;;;;;;5018853;28;20022;-79
2021/10/20 09:31:03;;;;;;;9.50;5.50;;;17.90;93.00;;;;;;5017315;28;20033;-78
2021/10/20 09:33:34;;;;;;;6.90;4.20;;;17.90;93.00;;;;;;5019498;28;20079;-81
2021/10/20 09:36:08;;;;;;;10.75;5.07;;;17.90;93.00;;;;;;5004706;28;20119;-81
2021/10/20 09:38:40;;;;;;;7.07;3.97;;;17.90;93.00;;;;;;5017770;28;20511;-82
2021/10/20 09:41:08;;;;;;;10.15;2.75;;;17.90;93.00;;;;;;5021516;28;20434;-82
2021/10/20 09:43:43;;;;;;;8.18;3.85;;;17.90;93.00;;;;;;5021952;28;20029;-81
2021/10/20 09:46:10;;;;;;;7.28;4.80;;;18.00;93.00;;;;;;5020981;28;20041;-80
2021/10/20 09:48:42;;;;;;;11.30;4.70;;;18.00;92.90;;;;;;5017060;28;20474;-80
2021/10/20 09:51:12;;;;;;;8.68;4.07;;;17.90;92.90;;;;;;5013890;28;20029;-81
2021/10/20 09:53:43;;;;;;;7.38;3.30;;;18.00;92.90;;;;;;5018128;28;20032;-81
2021/10/20 09:56:30;;;;;;;9.40;4.28;;;17.90;92.80;;;;;;5021594;28;20038;-79
2021/10/20 09:58:57;;;;;;;11.63;5.63;;;17.90;92.80;;;;;;5016274;28;20121;-79
2021/10/20 10:01:25;;;;;;;6.68;4.18;;;18.00;92.80;;;;;;5027564;28;20040;-78
2021/10/20 10:03:52;;;;;;;7.00;4.47;;;17.90;92.90;;;;;;5024408;28;20026;-80
2021/10/20 10:06:17;;;;;;;8.70;4.63;;;17.90;92.90;;;;;;5026383;28;20423;-80
2021/10/20 10:08:44;;;;;;;4.30;2.13;;;17.90;92.90;;;;;;5027320;28;20022;-80
2021/10/20 10:11:09;;;;;;;8.15;4.75;;;18.00;92.90;;;;;;5024913;28;20037;-80
2021/10/20 10:13:52;;;;;;;7.30;5.28;;;17.90;92.90;;;;;;5029927;28;20025;-80
2021/10/20 10:16:22;;;;;;;8.18;5.63;;;18.00;93.00;;;;;;5027899;28;20034;-78
2021/10/20 10:18:48;;;;;;;7.00;3.75;;;18.00;92.90;;;;;;5030556;28;20026;-79
2021/10/20 10:21:31;;;;;;;6.47;4.47;;;17.90;93.00;;;;;;5023670;28;20416;-81
2021/10/20 10:23:59;;;;;;;8.40;4.20;;;18.00;93.10;;;;;;5016665;28;20029;-83
2021/10/20 10:26:25;;;;;;;10.48;5.22;;;18.00;93.10;;;;;;5015351;28;20477;-82
2021/10/20 10:29:11;;;;;;;7.95;4.60;;;18.00;93.40;;;;;;5024768;28;20489;-79
2021/10/20 10:31:41;;;;;;;8.52;4.85;;;18.00;93.10;;;;;;5020396;28;20038;-80
2021/10/20 10:34:17;;;;;;;10.65;6.28;;;18.00;93.10;;;;;;5030742;28;20021;-77
2021/10/20 10:36:51;;;;;;;6.38;3.65;;;17.90;93.20;;;;;;5018614;28;20037;-80
2021/10/20 10:39:17;;;;;;;8.23;4.75;;;18.00;93.20;;;;;;5014881;28;20095;-79
2021/10/20 10:41:48;;;;;;;8.52;4.18;;;18.00;93.20;;;;;;5021374;28;20038;-78
2021/10/20 10:44:15;;;;;;;8.20;5.18;;;18.00;93.20;;;;;;5024818;28;20811;-78
2021/10/20 10:47:05;;;;;;;8.23;5.03;;;18.00;93.20;;;;;;5026980;28;20071;-80
2021/10/20 10:49:39;;;;;;;8.98;6.15;;;18.00;93.50;;;;;;5018631;28;20429;-82
2021/10/20 10:52:18;;;;;;;8.02;4.90;;;17.90;93.20;;;;;;5020702;28;20083;-79
2021/10/20 10:55:07;;;;;;;4.50;3.08;;;18.00;93.30;;;;;;5025712;28;20053;-79
2021/10/20 10:57:57;;;;;;;10.73;4.88;;;18.00;93.30;;;;;;5025617;28;20603;-80
2021/10/20 11:00:34;;;;;;;7.53;4.00;;;17.90;93.30;;;;;;5013743;28;20030;-79
2021/10/20 11:03:08;;;;;;;7.13;4.30;;;18.00;93.30;;;;;;5017595;28;20575;-77
2021/10/20 11:05:34;;;;;;;9.13;5.22;;;18.10;93.30;;;;;;5018779;28;20026;-79
2021/10/20 11:08:02;;;;;;;6.50;4.78;;;18.10;93.30;;;;;;5025322;28;20384;-81
2021/10/20 11:10:29;;;;;;;6.30;4.30;;;18.00;93.40;;;;;;5019253;28;20032;-79
2021/10/20 11:12:56;;;;;;;12.90;4.40;;;18.00;93.40;;;;;;5023385;28;20047;-77
2021/10/20 11:15:22;;;;;;;10.90;4.60;;;18.10;93.60;;;;;;5025450;28;20025;-80
2021/10/20 11:17:48;;;;;;;7.10;4.07;;;18.00;93.60;;;;;;5027824;28;20226;-83
2021/10/20 11:20:19;;;;;;;5.88;3.90;;;18.10;93.60;;;;;;5027130;28;20132;-79
2021/10/20 11:22:50;;;;;;;11.20;4.05;;;18.10;93.60;;;;;;5024958;28;20038;-79
2021/10/20 11:25:17;;;;;;;5.28;3.35;;;18.20;93.60;;;;;;5007912;28;20030;-79
2021/10/20 11:27:48;;;;;;;8.00;3.78;;;18.20;93.60;;;;;;5019599;28;20476;-79
2021/10/20 11:30:15;;;;;;;7.30;3.78;;;18.20;93.60;;;;;;5024554;28;20845;-79
2021/10/20 11:32:43;;;;;;;7.80;4.35;;;18.20;93.60;;;;;;5024742;28;20068;-79
2021/10/20 11:35:15;;;;;;;6.25;3.33;;;18.20;93.70;;;;;;5022442;28;20034;-81
2021/10/20 11:37:41;;;;;;;5.10;3.38;;;18.20;93.70;;;;;;5032343;28;20041;-79
2021/10/20 11:40:07;;;;;;;5.05;2.30;;;18.20;93.70;;;;;;5027824;28;20030;-79
2021/10/20 11:42:33;;;;;;;8.00;4.30;;;18.20;93.70;;;;;;5021237;28;20437;-79
2021/10/20 11:45:04;;;;;;;6.00;3.50;;;18.20;93.70;;;;;;5032059;28;20048;-79
2021/10/20 11:47:31;;;;;;;4.53;3.25;;;18.20;93.80;;;;;;5025880;28;20072;-79
2021/10/20 11:49:57;;;;;;;7.82;4.63;;;18.20;93.90;;;;;;5027665;28;20029;-80
2021/10/20 11:52:31;;;;;;;6.47;3.63;;;18.10;94.00;;;;;;5029782;28;20038;-83
2021/10/20 11:54:56;;;;;;;8.30;4.90;;;18.00;94.10;;;;;;5018591;28;20552;-80
2021/10/20 11:57:23;;;;;;;10.13;4.10;;;18.00;94.20;;;;;;5022649;28;20117;-80
2021/10/20 11:59:49;;;;;;;8.00;4.10;;;18.10;94.30;;;;;;5018593;28;20093;-79
2021/10/20 12:02:15;;;;;;;9.48;4.75;;;18.00;94.60;;;;;;5017721;28;20066;-80
2021/10/20 12:04:42;;;;;;;5.13;3.78;;;18.00;94.30;;;;;;5021640;28;20029;-80
2021/10/20 12:07:11;;;;;;;7.95;4.22;;;18.00;94.30;;;;;;5020320;28;20030;-80
2021/10/20 12:09:46;;;;;;;7.75;4.78;;;18.10;94.30;;;;;;5020942;28;20168;-81
2021/10/20 12:12:15;;;;;;;8.60;5.10;;;18.00;94.40;;;;;;5025480;28;20113;-79
2021/10/20 12:14:43;;;;;;;7.13;4.88;;;18.10;94.40;;;;;;5028562;28;20032;-79
2021/10/20 12:17:10;;;;;;;6.68;3.35;;;18.00;94.50;;;;;;5029154;28;20488;-80
2021/10/20 12:19:40;;;;;;;10.18;3.88;;;18.00;94.60;;;;;;5029228;28;20021;-79
2021/10/20 12:22:12;;;;;;;9.70;4.75;;;18.00;94.60;;;;;;5025798;28;20083;-80
2021/10/20 12:24:49;;;;;;;10.40;3.40;;;18.00;94.70;;;;;;5028673;28;20125;-81
2021/10/20 12:27:18;;;;;;;11.18;4.80;;;18.00;94.70;;;;;;5028006;28;20121;-80
2021/10/20 12:29:48;;;;;;;6.85;4.07;;;18.00;94.70;;;;;;5027462;28;20086;-79
2021/10/20 12:32:17;;;;;;;14.38;4.60;;;18.00;94.70;;;;;;5026355;28;20026;-80
2021/10/20 12:34:54;;;;;;;12.45;3.47;;;18.00;94.70;;;;;;5026655;28;20026;-80
2021/10/20 12:37:23;;;;;;;7.10;2.90;;;18.00;94.70;;;;;;5019927;28;20088;-80
2021/10/20 12:39:49;;;;;;;6.95;4.13;;;18.00;94.70;;;;;;5024429;28;20042;-80
2021/10/20 12:42:16;;;;;;;8.50;3.70;;;18.10;94.70;;;;;;5023358;28;20033;-81
2021/10/20 12:44:42;;;;;;;12.68;4.40;;;18.00;94.70;;;;;;5027957;28;20461;-81